createdAt,value
2018-07-27T00:00:58.426Z,73.35
2018-07-27T00:01:58.486Z,73.50
2018-07-27T00:02:58.549Z,73.83
2018-07-27T00:03:58.612Z,74.66
2018-07-27T00:04:58.674Z,74.57
2018-07-27T00:05:58.736Z,74.57
2018-07-27T00:06:58.800Z,75.53
2018-07-27T00:07:58.863Z,74.27
2018-07-27T00:08:58.928Z,75.92
2018-07-27T00:09:58.986Z,75.34
2018-07-27T00:10:59.050Z,74.85
2018-07-27T00:11:59.112Z,74.66
2018-07-27T00:12:59.174Z,74.27
2018-07-27T00:13:59.237Z,74.85
2018-07-27T00:14:59.300Z,74.95
2018-07-27T00:15:59.363Z,74.76
2018-07-27T00:16:59.425Z,75.14
2018-07-27T00:17:59.487Z,75.34
2018-07-27T00:18:59.550Z,74.95
2018-07-27T00:19:59.611Z,75.24
2018-07-27T00:20:59.673Z,75.34
2018-07-27T00:21:59.737Z,76.10
2018-07-27T00:22:59.800Z,76.01
2018-07-27T00:23:59.862Z,75.53
2018-07-27T00:24:59.923Z,75.34
2018-07-27T00:25:59.986Z,75.40
2018-07-27T00:27:00.051Z,75.01
2018-07-27T00:28:00.114Z,75.78
2018-07-27T00:29:00.175Z,76.45
2018-07-27T00:30:00.236Z,76.45
2018-07-27T00:31:00.300Z,77.13
2018-07-27T00:32:00.361Z,77.51
2018-07-27T00:33:00.423Z,78.96
2018-07-27T00:34:00.497Z,76.75
2018-07-27T00:35:00.549Z,77.86
2018-07-27T00:36:00.610Z,79.11
2018-07-27T00:37:00.672Z,79.69
2018-07-27T00:38:00.735Z,78.25
2018-07-27T00:39:00.797Z,78.15
2018-07-27T00:40:00.860Z,78.15
2018-07-27T00:41:00.922Z,76.71
2018-07-27T00:42:00.983Z,78.67
2018-07-27T00:43:01.048Z,77.61
2018-07-27T00:44:01.109Z,77.09
2018-07-27T00:45:01.171Z,78.06
2018-07-27T00:46:01.234Z,77.76
2018-07-27T00:47:01.295Z,77.90
2018-07-27T00:48:01.360Z,77.09
2018-07-27T00:49:01.423Z,77.19
2018-07-27T00:50:01.733Z,78.06
2018-07-27T00:51:01.545Z,78.15
2018-07-27T00:52:01.627Z,78.15
2018-07-27T00:53:01.669Z,79.69
2018-07-27T00:54:01.732Z,78.25
2018-07-27T00:55:01.794Z,78.25
2018-07-27T00:56:01.856Z,79.31
2018-07-27T00:57:01.918Z,77.86
2018-07-27T00:58:01.982Z,78.15
2018-07-27T00:59:02.044Z,77.48
2018-07-27T01:00:02.105Z,77.09
2018-07-27T01:01:02.166Z,77.09
2018-07-27T01:02:02.228Z,77.09
2018-07-27T01:03:02.292Z,77.44
2018-07-27T01:04:02.354Z,77.83
2018-07-27T01:05:02.414Z,77.83
2018-07-27T01:06:02.478Z,77.92
2018-07-27T01:07:02.540Z,77.44
2018-07-27T01:08:02.606Z,77.63
2018-07-27T01:09:02.663Z,78.02
2018-07-27T01:10:02.729Z,80.33
2018-07-27T01:11:02.788Z,80.23
2018-07-27T01:12:02.849Z,79.36
2018-07-27T01:13:02.911Z,78.98
2018-07-27T01:14:02.973Z,77.92
2018-07-27T01:15:03.038Z,78.11
2018-07-27T01:16:03.099Z,77.73
2018-07-27T01:17:03.160Z,77.25
2018-07-27T01:18:03.221Z,76.86
2018-07-27T01:19:03.284Z,77.34
2018-07-27T01:20:03.348Z,77.73
2018-07-27T01:21:03.408Z,78.02
2018-07-27T01:22:03.469Z,78.69
2018-07-27T01:23:03.531Z,78.69
2018-07-27T01:24:03.593Z,79.46
2018-07-27T01:25:03.654Z,79.66
2018-07-27T01:26:03.717Z,80.33
2018-07-27T01:27:03.778Z,80.04
2018-07-27T01:28:03.841Z,79.56
2018-07-27T01:29:03.902Z,80.14
2018-07-27T01:30:03.964Z,80.23
2018-07-27T01:31:04.028Z,81.29
2018-07-27T01:32:04.094Z,81.77
2018-07-27T01:33:04.151Z,81.25
2018-07-27T01:34:04.212Z,81.83
2018-07-27T01:35:04.275Z,81.06
2018-07-27T01:36:04.337Z,80.77
2018-07-27T01:37:04.397Z,81.35
2018-07-27T01:38:04.461Z,80.77
2018-07-27T01:39:04.522Z,80.38
2018-07-27T01:40:04.584Z,81.73
2018-07-27T01:41:04.645Z,81.83
2018-07-27T01:42:04.708Z,83.47
2018-07-27T01:43:04.769Z,84.53
2018-07-27T01:44:04.837Z,84.29
2018-07-27T01:45:04.893Z,84.19
2018-07-27T01:46:04.954Z,82.08
2018-07-27T01:47:05.017Z,84.23
2018-07-27T01:48:05.078Z,81.16
2018-07-27T01:49:05.139Z,82.31
2018-07-27T01:50:05.355Z,80.68
2018-07-27T01:51:05.327Z,80.77
2018-07-27T01:52:05.326Z,80.96
2018-07-27T01:53:05.397Z,80.48
2018-07-27T01:54:05.449Z,80.58
2018-07-27T01:55:05.510Z,81.06
2018-07-27T01:56:05.572Z,81.50
2018-07-27T01:57:05.632Z,82.46
2018-07-27T01:58:05.694Z,84.67
2018-07-27T01:59:05.756Z,84.77
2018-07-27T02:00:05.909Z,83.52
2018-07-27T02:01:05.880Z,84.58
2018-07-27T02:02:05.941Z,85.35
2018-07-27T02:03:06.010Z,85.64
2018-07-27T02:04:06.067Z,83.62
2018-07-27T02:05:09.283Z,83.52
2018-07-27T02:06:06.290Z,85.83
2018-07-27T02:07:06.249Z,83.81
2018-07-27T02:08:06.312Z,85.06
2018-07-27T02:09:06.373Z,84.87
2018-07-27T02:10:06.435Z,83.09
2018-07-27T02:11:06.499Z,84.29
2018-07-27T02:12:06.558Z,84.83
2018-07-27T02:13:06.670Z,84.29
2018-07-27T02:14:06.681Z,85.11
2018-07-27T02:15:06.744Z,85.98
2018-07-27T02:16:06.806Z,85.40
2018-07-27T02:17:06.866Z,84.83
2018-07-27T02:18:06.928Z,85.40
2018-07-27T02:19:06.989Z,84.58
2018-07-27T02:20:07.052Z,84.00
2018-07-27T02:21:07.112Z,83.62
2018-07-27T02:22:07.178Z,82.94
2018-07-27T02:23:07.235Z,82.71
2018-07-27T02:24:07.297Z,83.19
2018-07-27T02:25:07.359Z,84.54
2018-07-27T02:26:07.420Z,84.54
2018-07-27T02:27:07.481Z,86.02
2018-07-27T02:28:07.544Z,84.83
2018-07-27T02:29:07.604Z,84.83
2018-07-27T02:30:07.667Z,84.54
2018-07-27T02:31:07.730Z,83.19
2018-07-27T02:32:07.789Z,84.83
2018-07-27T02:33:07.856Z,84.63
2018-07-27T02:34:07.916Z,84.34
2018-07-27T02:35:07.973Z,85.60
2018-07-27T02:36:08.039Z,85.31
2018-07-27T02:37:08.096Z,85.21
2018-07-27T02:38:08.160Z,86.85
2018-07-27T02:39:08.223Z,85.60
2018-07-27T02:40:08.354Z,86.85
2018-07-27T02:41:08.341Z,86.36
2018-07-27T02:42:08.402Z,87.71
2018-07-27T02:43:08.471Z,88.53
2018-07-27T02:44:08.527Z,87.29
2018-07-27T02:45:08.588Z,87.42
2018-07-27T02:46:08.648Z,87.42
2018-07-27T02:47:08.713Z,86.85
2018-07-27T02:48:08.773Z,86.94
2018-07-27T02:49:08.831Z,87.71
2018-07-27T02:50:08.894Z,87.52
2018-07-27T02:51:08.957Z,88.19
2018-07-27T02:52:09.267Z,87.42
2018-07-27T02:53:09.080Z,85.31
2018-07-27T02:54:09.139Z,84.16
2018-07-27T02:55:09.201Z,84.88
2018-07-27T02:56:09.263Z,84.40
2018-07-27T02:57:09.322Z,84.69
2018-07-27T02:58:09.384Z,85.27
2018-07-27T02:59:09.445Z,85.36
2018-07-27T03:00:09.507Z,85.36
2018-07-27T03:01:09.568Z,86.22
2018-07-27T03:02:09.631Z,86.71
2018-07-27T03:03:09.691Z,87.96
2018-07-27T03:04:09.752Z,87.48
2018-07-27T03:05:09.813Z,89.93
2018-07-27T03:06:09.873Z,89.30
2018-07-27T03:07:09.936Z,89.78
2018-07-27T03:08:10.017Z,88.82
2018-07-27T03:09:10.057Z,87.57
2018-07-27T03:10:10.119Z,87.57
2018-07-27T03:11:10.179Z,86.71
2018-07-27T03:12:10.491Z,86.22
2018-07-27T03:13:10.303Z,87.19
2018-07-27T03:14:10.362Z,85.94
2018-07-27T03:15:10.428Z,86.13
2018-07-27T03:16:10.485Z,87.38
2018-07-27T03:17:10.546Z,90.36
2018-07-27T03:18:10.612Z,90.55
2018-07-27T03:19:10.668Z,87.96
2018-07-27T03:20:10.739Z,88.53
2018-07-27T03:21:10.790Z,88.44
2018-07-27T03:22:10.852Z,89.40
2018-07-27T03:23:10.912Z,87.09
2018-07-27T03:24:10.973Z,86.32
2018-07-27T03:25:11.035Z,86.61
2018-07-27T03:26:11.095Z,86.61
2018-07-27T03:27:11.157Z,85.84
2018-07-27T03:28:11.369Z,84.78
2018-07-27T03:29:11.279Z,85.65
2018-07-27T03:30:11.368Z,85.07
2018-07-27T03:31:11.401Z,85.84
2018-07-27T03:32:11.470Z,84.94
2018-07-27T03:33:11.523Z,84.74
2018-07-27T03:34:11.584Z,85.99
2018-07-27T03:35:11.653Z,88.78
2018-07-27T03:36:11.707Z,88.39
2018-07-27T03:37:11.767Z,89.83
2018-07-27T03:38:11.844Z,88.10
2018-07-27T03:39:11.891Z,88.20
2018-07-27T03:40:11.951Z,87.62
2018-07-27T03:41:12.013Z,87.34
2018-07-27T03:42:12.116Z,86.85
2018-07-27T03:43:12.138Z,86.85
2018-07-27T03:44:12.195Z,86.85
2018-07-27T03:45:12.260Z,87.53
2018-07-27T03:46:12.318Z,90.03
2018-07-27T03:47:12.378Z,88.59
2018-07-27T03:48:12.439Z,90.89
2018-07-27T03:49:12.499Z,88.39
2018-07-27T03:50:12.561Z,90.70
2018-07-27T03:51:12.623Z,88.68
2018-07-27T03:52:12.687Z,90.99
2018-07-27T03:53:12.744Z,87.53
2018-07-27T03:54:12.805Z,89.45
2018-07-27T03:55:12.866Z,88.54
2018-07-27T03:56:12.926Z,89.31
2018-07-27T03:57:12.986Z,88.87
2018-07-27T03:58:13.048Z,89.93
2018-07-27T03:59:13.109Z,88.39
2018-07-27T04:00:13.170Z,87.72
2018-07-27T04:01:13.232Z,88.39
2018-07-27T04:02:13.350Z,86.85
2018-07-27T04:03:13.353Z,87.62
2018-07-27T04:04:13.414Z,88.10
2018-07-27T04:05:13.474Z,87.53
2018-07-27T04:06:13.534Z,88.68
2018-07-27T04:07:13.614Z,88.49
2018-07-27T04:08:13.657Z,88.87
2018-07-27T04:09:13.716Z,87.92
2018-07-27T04:10:13.777Z,88.30
2018-07-27T04:11:13.838Z,87.24
2018-07-27T04:12:13.902Z,87.62
2018-07-27T04:13:13.960Z,88.10
2018-07-27T04:14:14.021Z,88.73
2018-07-27T04:15:14.083Z,89.74
2018-07-27T04:16:14.144Z,90.03
2018-07-27T04:17:14.204Z,89.07
2018-07-27T04:18:14.268Z,88.39
2018-07-27T04:19:14.326Z,89.64
2018-07-27T04:20:14.386Z,88.87
2018-07-27T04:21:14.446Z,90.66
2018-07-27T04:22:14.507Z,88.83
2018-07-27T04:23:14.579Z,88.25
2018-07-27T04:24:14.630Z,86.62
2018-07-27T04:25:14.690Z,89.93
2018-07-27T04:26:14.755Z,89.93
2018-07-27T04:27:14.839Z,90.70
2018-07-27T04:28:14.883Z,91.85
2018-07-27T04:29:14.941Z,90.12
2018-07-27T04:30:14.994Z,90.66
2018-07-27T04:31:15.055Z,90.17
2018-07-27T04:32:15.118Z,89.40
2018-07-27T04:33:15.176Z,90.27
2018-07-27T04:34:15.236Z,92.43
2018-07-27T04:35:15.297Z,89.93
2018-07-27T04:36:15.365Z,90.46
2018-07-27T04:37:15.421Z,90.08
2018-07-27T04:38:15.480Z,89.40
2018-07-27T04:39:15.541Z,90.60
2018-07-27T04:40:15.605Z,90.22
2018-07-27T04:41:15.663Z,91.75
2018-07-27T04:42:15.723Z,94.06
2018-07-27T04:43:15.787Z,89.83
2018-07-27T04:44:15.845Z,89.36
2018-07-27T04:45:15.904Z,87.53
2018-07-27T04:46:15.967Z,89.16
2018-07-27T04:47:16.028Z,90.12
2018-07-27T04:48:16.089Z,89.45
2018-07-27T04:49:16.158Z,88.97
2018-07-27T04:50:16.210Z,89.16
2018-07-27T04:51:16.271Z,88.35
2018-07-27T04:52:16.338Z,88.35
2018-07-27T04:53:16.393Z,89.12
2018-07-27T04:54:16.453Z,88.45
2018-07-27T04:55:16.515Z,87.15
2018-07-27T04:56:16.631Z,86.76
2018-07-27T04:57:16.637Z,87.05
2018-07-27T04:58:16.697Z,87.05
2018-07-27T04:59:16.758Z,86.66
2018-07-27T05:00:16.820Z,86.76
2018-07-27T05:01:16.879Z,86.09
2018-07-27T05:02:16.939Z,85.89
2018-07-27T05:03:17.006Z,85.99
2018-07-27T05:04:17.063Z,86.76
2018-07-27T05:05:17.123Z,85.99
2018-07-27T05:06:17.184Z,85.89
2018-07-27T05:07:17.245Z,86.66
2018-07-27T05:08:17.350Z,86.28
2018-07-27T05:09:17.368Z,85.13
2018-07-27T05:10:17.428Z,86.47
2018-07-27T05:11:17.491Z,86.85
2018-07-27T05:12:17.550Z,87.43
2018-07-27T05:13:17.611Z,87.53
2018-07-27T05:14:17.673Z,87.34
2018-07-27T05:15:17.733Z,89.36
2018-07-27T05:16:17.794Z,87.53
2018-07-27T05:17:17.855Z,86.76
2018-07-27T05:18:17.985Z,86.85
2018-07-27T05:19:17.977Z,86.76
2018-07-27T05:20:18.039Z,86.18
2018-07-27T05:21:18.100Z,86.95
2018-07-27T05:22:18.160Z,86.95
2018-07-27T05:23:18.224Z,87.72
2018-07-27T05:24:18.534Z,91.03
2018-07-27T05:25:18.345Z,89.50
2018-07-27T05:26:18.405Z,88.92
2018-07-27T05:27:18.473Z,87.09
2018-07-27T05:28:18.528Z,85.94
2018-07-27T05:29:18.589Z,86.71
2018-07-27T05:30:18.650Z,86.42
2018-07-27T05:31:18.715Z,86.90
2018-07-27T05:32:18.772Z,85.75
2018-07-27T05:33:18.833Z,84.78
2018-07-27T05:34:18.945Z,83.83
2018-07-27T05:35:18.956Z,83.06
2018-07-27T05:36:19.018Z,83.44
2018-07-27T05:37:19.078Z,83.34
2018-07-27T05:38:19.140Z,84.88
2018-07-27T05:39:19.210Z,84.11
2018-07-27T05:40:19.262Z,84.59
2018-07-27T05:41:19.323Z,84.11
2018-07-27T05:42:19.385Z,84.59
2018-07-27T05:43:19.446Z,84.59
2018-07-27T05:44:19.508Z,84.30
2018-07-27T05:45:19.571Z,85.02
2018-07-27T05:46:19.631Z,84.92
2018-07-27T05:47:19.693Z,84.83
2018-07-27T05:48:19.754Z,84.73
2018-07-27T05:49:19.815Z,83.58
2018-07-27T05:50:19.877Z,82.81
2018-07-27T05:51:19.937Z,82.42
2018-07-27T05:52:20.013Z,82.94
2018-07-27T05:53:20.060Z,84.00
2018-07-27T05:54:20.122Z,83.42
2018-07-27T05:55:20.183Z,81.40
2018-07-27T05:56:20.247Z,81.79
2018-07-27T05:57:20.306Z,85.64
2018-07-27T05:58:20.371Z,88.43
2018-07-27T05:59:20.482Z,84.58
2018-07-27T06:00:20.492Z,85.49
2018-07-27T06:01:20.553Z,85.78
2018-07-27T06:02:22.074Z,84.33
2018-07-27T06:03:20.679Z,84.66
2018-07-27T06:04:20.743Z,85.05
2018-07-27T06:05:20.801Z,86.69
2018-07-27T06:06:20.863Z,87.17
2018-07-27T06:07:20.925Z,86.78
2018-07-27T06:08:20.987Z,86.78
2018-07-27T06:09:21.048Z,86.11
2018-07-27T06:10:21.111Z,84.86
2018-07-27T06:11:21.172Z,85.34
2018-07-27T06:12:21.235Z,85.24
2018-07-27T06:13:21.296Z,85.24
2018-07-27T06:14:21.358Z,85.14
2018-07-27T06:15:21.421Z,86.92
2018-07-27T06:16:21.483Z,87.02
2018-07-27T06:17:21.543Z,86.92
2018-07-27T06:18:21.610Z,86.63
2018-07-27T06:19:21.672Z,86.92
2018-07-27T06:20:21.983Z,87.02
2018-07-27T06:21:21.802Z,86.73
2018-07-27T06:22:21.857Z,86.05
2018-07-27T06:23:21.919Z,86.35
2018-07-27T06:24:22.083Z,86.25
2018-07-27T06:25:22.045Z,85.91
2018-07-27T06:26:22.106Z,85.33
2018-07-27T06:27:22.170Z,85.03
2018-07-27T06:28:22.232Z,85.23
2018-07-27T06:29:22.297Z,85.61
2018-07-27T06:30:22.892Z,84.17
2018-07-27T06:31:22.419Z,85.13
2018-07-27T06:32:22.482Z,84.55
2018-07-27T06:33:22.544Z,84.65
2018-07-27T06:34:22.641Z,84.36
2018-07-27T06:35:22.669Z,83.78
2018-07-27T06:36:22.734Z,82.67
2018-07-27T06:37:22.794Z,82.38
2018-07-27T06:38:22.858Z,81.60
2018-07-27T06:39:22.922Z,81.51
2018-07-27T06:40:22.985Z,81.22
2018-07-27T06:41:23.045Z,80.58
2018-07-27T06:42:23.108Z,80.64
2018-07-27T06:43:23.173Z,80.16
2018-07-27T06:44:23.236Z,79.52
2018-07-27T06:45:23.299Z,79.24
2018-07-27T06:46:23.360Z,79.14
2018-07-27T06:47:23.424Z,78.85
2018-07-27T06:48:23.486Z,79.24
2018-07-27T06:49:23.553Z,79.14
2018-07-27T06:50:23.634Z,78.85
2018-07-27T06:51:23.677Z,78.69
2018-07-27T06:52:23.744Z,78.59
2018-07-27T06:53:23.801Z,78.11
2018-07-27T06:54:23.871Z,78.21
2018-07-27T06:55:23.928Z,78.11
2018-07-27T06:56:23.993Z,77.73
2018-07-27T06:57:24.067Z,77.53
2018-07-27T06:58:24.118Z,76.57
2018-07-27T06:59:24.182Z,76.12
2018-07-27T07:00:24.245Z,75.84
2018-07-27T07:01:24.308Z,75.54
2018-07-27T07:02:24.373Z,74.68
2018-07-27T07:03:24.467Z,74.68
2018-07-27T07:04:24.503Z,74.58
2018-07-27T07:05:24.561Z,73.90
2018-07-27T07:06:24.626Z,72.49
2018-07-27T07:07:24.692Z,72.30
2018-07-27T07:08:24.756Z,71.81
2018-07-27T07:09:24.817Z,72.78
2018-07-27T07:10:24.881Z,72.00
2018-07-27T07:11:24.945Z,71.84
2018-07-27T07:12:25.037Z,71.66
2018-07-27T07:13:25.070Z,72.24
2018-07-27T07:14:25.528Z,72.81
2018-07-27T07:15:25.984Z,73.49
2018-07-27T07:16:25.791Z,73.59
2018-07-27T07:17:25.781Z,73.97
2018-07-27T07:18:25.667Z,74.27
2018-07-27T07:19:26.020Z,74.30
2018-07-27T07:20:26.270Z,73.43
2018-07-27T07:21:25.672Z,73.72
2018-07-27T07:22:26.259Z,73.91
2018-07-27T07:23:25.747Z,71.78
2018-07-27T07:24:26.127Z,70.53
2018-07-27T07:25:26.397Z,70.62
2018-07-27T07:26:25.968Z,71.01
2018-07-27T07:27:26.343Z,70.53
2018-07-27T07:28:26.067Z,71.78
2018-07-27T07:29:26.094Z,71.53
2018-07-27T07:30:26.541Z,71.53
2018-07-27T07:31:26.311Z,70.95
2018-07-27T07:32:26.324Z,69.21
2018-07-27T07:33:26.358Z,69.15
2018-07-27T07:34:27.031Z,69.24
2018-07-27T07:35:27.003Z,68.37
2018-07-27T07:36:27.150Z,68.37
2018-07-27T07:37:26.608Z,67.11
2018-07-27T07:38:26.681Z,64.79
2018-07-27T07:39:26.736Z,63.75
2018-07-27T07:40:26.803Z,63.95
2018-07-27T07:41:26.865Z,62.88
2018-07-27T07:42:26.930Z,62.49
2018-07-27T07:43:26.994Z,62.72
2018-07-27T07:44:27.064Z,63.01
2018-07-27T07:45:27.127Z,62.04
2018-07-27T07:46:27.187Z,62.23
2018-07-27T07:47:27.255Z,62.13
2018-07-27T07:48:27.780Z,61.19
2018-07-27T07:49:27.432Z,61.58
2018-07-27T07:50:27.447Z,60.71
2018-07-27T07:51:27.511Z,60.81
2018-07-27T07:52:27.577Z,60.35
2018-07-27T07:53:27.642Z,59.00
2018-07-27T07:54:27.709Z,59.28
2018-07-27T07:55:27.771Z,59.38
2018-07-27T07:56:27.836Z,59.00
2018-07-27T07:57:27.901Z,59.31
2018-07-27T07:58:27.967Z,59.03
2018-07-27T07:59:28.031Z,58.93
2018-07-27T08:00:28.096Z,58.34
2018-07-27T08:01:28.162Z,57.96
2018-07-27T08:02:28.226Z,57.28
2018-07-27T08:03:28.291Z,57.08
2018-07-27T08:04:28.358Z,56.60
2018-07-27T08:05:28.447Z,56.40
2018-07-27T08:06:28.486Z,56.43
2018-07-27T08:07:28.552Z,56.24
2018-07-27T08:08:28.622Z,56.43
2018-07-27T08:09:28.683Z,56.34
2018-07-27T08:10:28.749Z,56.43
2018-07-27T08:11:29.441Z,56.04
2018-07-27T08:12:28.880Z,56.16
2018-07-27T08:13:28.944Z,56.16
2018-07-27T08:14:29.011Z,56.16
2018-07-27T08:15:29.777Z,56.07
2018-07-27T08:16:29.141Z,55.68
2018-07-27T08:17:29.207Z,55.58
2018-07-27T08:18:29.272Z,55.03
2018-07-27T08:19:29.339Z,55.32
2018-07-27T08:20:29.405Z,55.13
2018-07-27T08:21:29.469Z,55.22
2018-07-27T08:22:29.536Z,54.93
2018-07-27T08:23:29.604Z,54.25
2018-07-27T08:24:29.669Z,54.44
2018-07-27T08:25:29.734Z,54.15
2018-07-27T08:26:29.799Z,54.25
2018-07-27T08:27:29.867Z,53.50
2018-07-27T08:28:29.936Z,53.50
2018-07-27T08:29:29.998Z,53.30
2018-07-27T08:30:30.064Z,53.50
2018-07-27T08:31:30.132Z,53.30
2018-07-27T08:32:30.197Z,51.87
2018-07-27T08:33:30.262Z,51.87
2018-07-27T08:34:30.331Z,52.09
2018-07-27T08:35:30.397Z,49.76
2018-07-27T08:36:30.462Z,49.07
2018-07-27T08:37:30.527Z,47.71
2018-07-27T08:38:30.594Z,47.53
2018-07-27T08:39:30.669Z,47.63
2018-07-27T08:40:30.727Z,46.08
2018-07-27T08:41:30.793Z,46.37
2018-07-27T08:42:30.861Z,46.10
2018-07-27T08:43:30.929Z,45.90
2018-07-27T08:44:30.993Z,45.61
2018-07-27T08:45:31.061Z,45.25
2018-07-27T08:46:31.128Z,45.34
2018-07-27T08:47:31.194Z,45.07
2018-07-27T08:48:31.270Z,44.76
2018-07-27T08:49:31.328Z,44.58
2018-07-27T08:50:31.394Z,44.19
2018-07-27T08:51:31.465Z,44.58
2018-07-27T08:52:31.542Z,44.68
2018-07-27T08:53:31.598Z,44.58
2018-07-27T08:54:31.704Z,44.78
2018-07-27T08:55:31.729Z,44.09
2018-07-27T08:56:31.800Z,44.19
2018-07-27T08:57:31.862Z,43.92
2018-07-27T08:58:31.930Z,44.21
2018-07-27T08:59:31.999Z,43.92
2018-07-27T09:00:32.065Z,44.02
2018-07-27T09:01:32.132Z,43.73
2018-07-27T09:02:32.199Z,43.65
2018-07-27T09:03:32.267Z,42.97
2018-07-27T09:04:32.334Z,43.26
2018-07-27T09:05:32.403Z,43.36
2018-07-27T09:06:32.470Z,43.26
2018-07-27T09:07:32.536Z,43.36
2018-07-27T09:08:32.605Z,43.36
2018-07-27T09:09:32.670Z,43.65
2018-07-27T09:10:32.740Z,43.36
2018-07-27T09:11:32.806Z,43.28
2018-07-27T09:12:32.874Z,43.08
2018-07-27T09:13:32.949Z,43.08
2018-07-27T09:14:33.010Z,42.69
2018-07-27T09:15:33.077Z,42.79
2018-07-27T09:16:33.143Z,42.79
2018-07-27T09:17:33.211Z,42.48
2018-07-27T09:18:33.280Z,42.69
2018-07-27T09:19:33.349Z,42.50
2018-07-27T09:20:33.418Z,42.69
2018-07-27T09:21:33.483Z,42.60
2018-07-27T09:22:33.551Z,42.32
2018-07-27T09:23:33.644Z,42.42
2018-07-27T09:24:33.870Z,42.30
2018-07-27T09:25:33.752Z,42.40
2018-07-27T09:26:33.822Z,42.35
2018-07-27T09:27:33.889Z,42.32
2018-07-27T09:28:33.956Z,42.54
2018-07-27T09:29:34.027Z,42.35
2018-07-27T09:30:34.092Z,42.44
2018-07-27T09:31:34.160Z,42.27
2018-07-27T09:32:34.229Z,41.68
2018-07-27T09:33:34.295Z,41.00
2018-07-27T09:34:34.363Z,40.63
2018-07-27T09:35:34.462Z,41.02
2018-07-27T09:36:34.500Z,40.63
2018-07-27T09:37:34.567Z,40.53
2018-07-27T09:38:34.635Z,40.63
2018-07-27T09:39:34.703Z,40.25
2018-07-27T09:40:34.843Z,40.72
2018-07-27T09:41:34.838Z,40.63
2018-07-27T09:42:34.907Z,40.33
2018-07-27T09:43:34.974Z,40.03
2018-07-27T09:44:35.058Z,40.33
2018-07-27T09:45:35.111Z,40.72
2018-07-27T09:46:35.234Z,40.92
2018-07-27T09:47:35.248Z,40.92
2018-07-27T09:48:35.316Z,40.23
2018-07-27T09:49:35.384Z,40.23
2018-07-27T09:50:35.452Z,40.03
2018-07-27T09:51:35.576Z,40.14
2018-07-27T09:52:38.947Z,40.82
2018-07-27T09:53:35.661Z,40.43
2018-07-27T09:54:35.726Z,39.94
2018-07-27T09:55:35.796Z,39.47
2018-07-27T09:56:35.863Z,39.54
2018-07-27T09:57:35.958Z,39.86
2018-07-27T09:58:36.051Z,39.47
2018-07-27T09:59:36.430Z,39.56
2018-07-27T10:00:36.139Z,38.60
2018-07-27T10:01:36.207Z,39.27
2018-07-27T10:02:36.272Z,39.37
2018-07-27T10:03:36.350Z,39.37
2018-07-27T10:04:36.412Z,38.12
2018-07-27T10:05:36.480Z,38.60
2018-07-27T10:06:36.548Z,37.84
2018-07-27T10:07:36.618Z,37.45
2018-07-27T10:08:36.685Z,37.05
2018-07-27T10:09:36.753Z,35.99
2018-07-27T10:10:36.823Z,34.74
2018-07-27T10:11:36.892Z,34.23
2018-07-27T10:12:36.961Z,34.81
2018-07-27T10:13:37.170Z,34.72
2018-07-27T10:14:37.153Z,34.33
2018-07-27T10:15:37.166Z,32.94
2018-07-27T10:16:37.236Z,32.35
2018-07-27T10:17:37.305Z,34.33
2018-07-27T10:18:37.374Z,34.62
2018-07-27T10:19:37.445Z,33.65
2018-07-27T10:20:37.514Z,32.20
2018-07-27T10:21:37.583Z,32.78
2018-07-27T10:22:38.229Z,33.75
2018-07-27T10:23:37.725Z,33.18
2018-07-27T10:24:37.795Z,31.92
2018-07-27T10:25:37.867Z,31.33
2018-07-27T10:26:37.942Z,31.32
2018-07-27T10:27:38.059Z,31.32
2018-07-27T10:28:38.086Z,30.55
2018-07-27T10:29:38.153Z,29.68
2018-07-27T10:30:38.227Z,29.58
2018-07-27T10:31:38.300Z,29.66
2018-07-27T10:32:38.373Z,30.55
2018-07-27T10:33:38.446Z,31.94
2018-07-27T10:34:38.521Z,31.94
2018-07-27T10:35:38.594Z,32.31
2018-07-27T10:36:38.668Z,32.82
2018-07-27T10:37:38.742Z,31.95
2018-07-27T10:38:38.853Z,32.34
2018-07-27T10:39:38.890Z,31.80
2018-07-27T10:40:38.964Z,30.73
2018-07-27T10:41:39.039Z,30.54
2018-07-27T10:42:39.427Z,30.93
2018-07-27T10:43:39.220Z,30.37
2018-07-27T10:44:39.267Z,29.99
2018-07-27T10:45:39.343Z,29.60
2018-07-27T10:46:39.416Z,30.07
2018-07-27T10:47:39.495Z,30.62
2018-07-27T10:48:39.569Z,31.41
2018-07-27T10:49:39.644Z,30.85
2018-07-27T10:50:39.721Z,30.45
2018-07-27T10:51:39.797Z,29.60
2018-07-27T10:52:39.874Z,30.22
2018-07-27T10:53:39.953Z,30.88
2018-07-27T10:54:40.026Z,31.77
2018-07-27T10:55:40.107Z,31.95
2018-07-27T10:56:40.184Z,31.39
2018-07-27T10:57:40.256Z,30.72
2018-07-27T10:58:40.332Z,30.34
2018-07-27T10:59:40.411Z,29.10
2018-07-27T11:00:40.487Z,27.86
2018-07-27T11:01:40.562Z,27.86
2018-07-27T11:02:40.640Z,27.36
2018-07-27T11:03:40.717Z,26.97
2018-07-27T11:04:40.794Z,27.84
2018-07-27T11:05:40.871Z,27.92
2018-07-27T11:06:40.947Z,28.79
2018-07-27T11:07:41.025Z,28.33
2018-07-27T11:08:41.150Z,28.02
2018-07-27T11:09:41.235Z,28.03
2018-07-27T11:10:41.259Z,28.61
2018-07-27T11:11:41.336Z,30.58
2018-07-27T11:12:41.418Z,31.31
2018-07-27T11:13:41.490Z,30.60
2018-07-27T11:14:41.568Z,31.10
2018-07-27T11:15:41.646Z,31.46
2018-07-27T11:16:41.721Z,31.74
2018-07-27T11:17:41.815Z,32.05
2018-07-27T11:18:41.882Z,30.59
2018-07-27T11:19:41.950Z,29.17
2018-07-27T11:20:42.028Z,27.73
2018-07-27T11:21:42.102Z,26.97
2018-07-27T11:22:42.179Z,26.80
2018-07-27T11:23:42.254Z,25.82
2018-07-27T11:24:42.330Z,25.93
2018-07-27T11:25:43.094Z,25.55
2018-07-27T11:26:42.482Z,24.77
2018-07-27T11:27:42.559Z,24.85
2018-07-27T11:28:42.635Z,24.35
2018-07-27T11:29:42.711Z,24.56
2018-07-27T11:30:42.788Z,23.94
2018-07-27T11:31:42.865Z,23.95
2018-07-27T11:32:42.943Z,23.83
2018-07-27T11:33:43.019Z,24.52
2018-07-27T11:34:43.096Z,23.95
2018-07-27T11:35:43.174Z,23.67
2018-07-27T11:36:43.251Z,24.72
2018-07-27T11:37:43.329Z,24.62
2018-07-27T11:38:43.406Z,24.63
2018-07-27T11:39:43.488Z,23.96
2018-07-27T11:40:43.564Z,23.96
2018-07-27T11:41:43.639Z,24.05
2018-07-27T11:42:43.718Z,24.54
2018-07-27T11:43:43.797Z,25.39
2018-07-27T11:44:43.881Z,25.79
2018-07-27T11:45:43.952Z,25.04
2018-07-27T11:46:44.030Z,24.05
2018-07-27T11:47:44.108Z,25.42
2018-07-27T11:48:44.187Z,24.65
2018-07-27T11:49:44.264Z,24.56
2018-07-27T11:50:44.342Z,23.97
2018-07-27T11:51:44.420Z,23.97
2018-07-27T11:52:44.498Z,23.99
2018-07-27T11:53:44.591Z,23.89
2018-07-27T11:54:44.657Z,24.18
2018-07-27T11:55:44.734Z,24.16
2018-07-27T11:56:44.818Z,24.56
2018-07-27T11:57:44.892Z,24.25
2018-07-27T11:58:44.971Z,24.73
2018-07-27T11:59:45.049Z,24.26
2018-07-27T12:00:45.126Z,24.22
2018-07-27T12:01:45.342Z,25.32
2018-07-27T12:02:45.283Z,24.55
2018-07-27T12:03:46.032Z,24.07
2018-07-27T12:04:45.440Z,24.67
2018-07-27T12:05:45.517Z,25.32
2018-07-27T12:06:45.600Z,25.89
2018-07-27T12:07:45.675Z,25.67
2018-07-27T12:08:45.752Z,25.98
2018-07-27T12:09:45.830Z,26.45
2018-07-27T12:10:45.906Z,26.70
2018-07-27T12:11:45.985Z,27.86
2018-07-27T12:12:46.063Z,27.47
2018-07-27T12:13:46.144Z,28.24
2018-07-27T12:14:46.339Z,28.82
2018-07-27T12:15:46.298Z,27.76
2018-07-27T12:16:46.368Z,27.67
2018-07-27T12:17:46.443Z,27.78
2018-07-27T12:18:46.527Z,27.28
2018-07-27T12:19:46.597Z,27.76
2018-07-27T12:20:46.802Z,27.97
2018-07-27T12:21:46.927Z,27.01
2018-07-27T12:22:46.822Z,26.93
2018-07-27T12:23:46.896Z,26.70
2018-07-27T12:24:46.972Z,26.89
2018-07-27T12:25:47.046Z,26.02
2018-07-27T12:26:47.120Z,25.56
2018-07-27T12:27:47.197Z,24.51
2018-07-27T12:28:47.271Z,24.50
2018-07-27T12:29:47.345Z,24.11
2018-07-27T12:30:47.421Z,22.94
2018-07-27T12:31:47.496Z,23.43
2018-07-27T12:32:47.667Z,22.94
2018-07-27T12:33:47.646Z,23.24
2018-07-27T12:34:47.724Z,22.85
2018-07-27T12:35:47.799Z,22.67
2018-07-27T12:36:47.881Z,22.78
2018-07-27T12:37:47.950Z,22.51
2018-07-27T12:38:48.283Z,22.72
2018-07-27T12:39:48.104Z,21.64
2018-07-27T12:40:48.181Z,21.54
2018-07-27T12:41:48.257Z,21.52
2018-07-27T12:42:48.361Z,21.62
2018-07-27T12:43:48.412Z,21.61
2018-07-27T12:44:48.489Z,22.28
2018-07-27T12:45:48.573Z,23.33
2018-07-27T12:46:48.644Z,23.26
2018-07-27T12:47:48.722Z,23.27
2018-07-27T12:48:48.800Z,22.50
2018-07-27T12:49:48.877Z,22.71
2018-07-27T12:50:48.954Z,21.74
2018-07-27T12:51:49.032Z,21.53
2018-07-27T12:52:49.109Z,20.86
2018-07-27T12:53:49.259Z,20.09